Time;durP1;ratioP1;P1;durP2;ratioP2;P2;SDS_P1;SDS_P2;PMS_P1;PMS_P2;Temp;Humidity;BMP_temperature;BMP_pressure;BME280_temperature;BME280_humidity;BME280_pressure;Samples;Min_cycle;Max_cycle;Signal;HPM_P1;HPM_P2
2022/02/16 00:00:31;;;;;;;47.47;28.05;;;;;;;1.88;72.40;100688.69;5049017;28;20508;-21
2022/02/16 00:02:56;;;;;;;50.08;27.38;;;;;;;1.61;74.32;100700.00;5049392;28;20025;-21
2022/02/16 00:05:22;;;;;;;55.15;31.92;;;;;;;1.48;75.17;100692.44;5031251;28;20436;-21
2022/02/16 00:07:50;;;;;;;64.63;33.72;;;;;;;1.52;74.31;100695.63;5049254;28;20021;-23
2022/02/16 00:10:16;;;;;;;;;;;;;;;2.28;72.54;100703.22;5049417;28;20132;-21
2022/02/16 00:12:42;;;;;;;55.97;29.15;;;;;;;2.54;70.28;100691.97;5031158;28;20349;-21
2022/02/16 00:15:08;;;;;;;54.22;32.38;;;;;;;2.04;71.56;100647.72;5049038;28;20052;-21
2022/02/16 00:17:34;;;;;;;54.30;29.13;;;;;;;1.70;72.03;100687.81;5031101;28;20404;-21
2022/02/16 00:19:59;;;;;;;49.70;28.70;;;;;;;1.00;73.33;100696.03;5031210;28;20035;-21
2022/02/16 00:22:25;;;;;;;52.85;28.17;;;;;;;1.40;72.68;100687.91;5048668;28;20514;-21
2022/02/16 00:24:50;;;;;;;45.75;26.00;;;;;;;1.73;70.33;100666.47;5048342;28;20040;-21
2022/02/16 00:27:16;;;;;;;48.25;26.98;;;;;;;1.75;70.17;100675.03;5048999;28;20820;-21
2022/02/16 00:29:42;;;;;;;40.80;25.73;;;;;;;1.86;68.47;100684.50;5048856;28;20029;-21
2022/02/16 00:32:09;;;;;;;42.35;22.83;;;;;;;0.95;70.18;100678.06;5048722;28;20036;-21
2022/02/16 00:34:35;;;;;;;41.72;23.10;;;;;;;0.30;72.97;100672.56;5063582;28;20029;-21
2022/02/16 00:37:00;;;;;;;39.00;22.50;;;;;;;0.07;74.38;100671.19;5048611;28;20036;-23
2022/02/16 00:39:26;;;;;;;42.10;23.63;;;;;;;0.88;71.22;100666.47;5048888;28;20057;-21
2022/02/16 00:41:51;;;;;;;42.78;23.67;;;;;;;0.96;70.00;100673.63;5048675;28;20550;-22
2022/02/16 00:44:17;;;;;;;39.53;21.92;;;;;;;1.17;69.16;100657.72;5048742;28;20036;-21
2022/02/16 00:46:42;;;;;;;42.30;24.83;;;;;;;1.16;70.58;100674.44;5048692;28;20047;-21
2022/02/16 00:49:08;;;;;;;44.47;27.05;;;;;;;1.27;72.08;100676.03;5048813;28;20613;-21
2022/02/16 00:51:33;;;;;;;48.58;29.80;;;;;;;1.76;71.17;100667.00;5048438;28;20393;-21
2022/02/16 00:53:59;;;;;;;56.17;32.50;;;;;;;1.59;71.04;100660.72;5048387;28;20021;-22
2022/02/16 00:56:24;;;;;;;54.50;31.60;;;;;;;1.55;72.19;100663.78;5048183;28;20067;-21
2022/02/16 00:58:49;;;;;;;56.20;29.92;;;;;;;1.86;70.56;100650.31;5048203;28;20404;-22
2022/02/16 01:01:15;;;;;;;53.97;30.98;;;;;;;1.49;71.66;100640.69;5048249;28;20052;-21
2022/02/16 01:03:40;;;;;;;59.53;33.55;;;;;;;1.96;72.00;100661.59;5048430;28;20037;-21
2022/02/16 01:06:06;;;;;;;55.83;31.33;;;;;;;1.92;70.60;100653.22;5048121;28;20037;-21
2022/02/16 01:08:31;;;;;;;56.47;31.13;;;;;;;1.63;70.79;100655.16;5047851;28;20127;-22
2022/02/16 01:10:57;;;;;;;57.80;31.98;;;;;;;1.75;70.01;100635.59;5048255;28;20040;-22
2022/02/16 01:13:24;;;;;;;61.60;35.03;;;;;;;2.13;69.03;100646.84;5030336;28;20033;-21
2022/02/16 01:15:51;;;;;;;61.47;35.60;;;;;;;2.01;69.22;100649.69;5047972;28;20519;-21
2022/02/16 01:18:16;;;;;;;84.68;42.40;;;;;;;2.12;69.38;100624.13;5047891;28;20036;-22
2022/02/16 01:20:42;;;;;;;65.75;37.08;;;;;;;1.99;69.62;100637.66;5047646;28;20040;-21
2022/02/16 01:23:08;;;;;;;60.92;34.95;;;;;;;1.97;69.77;100650.94;5047737;28;20033;-21
2022/02/16 01:25:34;;;;;;;63.95;35.22;;;;;;;1.75;70.26;100635.59;5030084;28;20052;-21
2022/02/16 01:28:00;;;;;;;64.85;36.00;;;;;;;1.80;71.47;100651.75;5047896;28;20033;-22
2022/02/16 01:30:26;;;;;;;68.20;38.45;;;;;;;2.08;71.63;100654.34;5047653;28;20033;-21
2022/02/16 01:32:52;;;;;;;66.18;36.58;;;;;;;1.93;72.04;100648.78;5047750;28;20044;-21
2022/02/16 01:35:17;;;;;;;75.63;40.95;;;;;;;1.59;70.72;100608.16;5047734;28;20036;-21
2022/02/16 01:37:43;;;;;;;75.68;38.67;;;;;;;1.09;72.73;100624.25;5047556;28;20029;-21
2022/02/16 01:40:09;;;;;;;73.35;39.33;;;;;;;1.12;74.28;100626.59;5047793;28;20094;-21
2022/02/16 01:42:34;;;;;;;65.43;36.17;;;;;;;1.66;72.60;100634.66;5047475;28;20025;-21
2022/02/16 01:44:59;;;;;;;67.28;38.45;;;;;;;1.68;71.96;100624.00;5047652;28;20491;-22
2022/02/16 01:47:25;;;;;;;62.75;37.13;;;;;;;1.45;72.01;100605.16;5047752;28;20033;-22
2022/02/16 01:49:50;;;;;;;75.85;37.85;;;;;;;2.12;70.91;100618.88;5047501;28;20036;-21
2022/02/16 01:52:16;;;;;;;66.30;37.05;;;;;;;2.24;69.65;100628.19;5047274;28;20062;-21
2022/02/16 01:54:41;;;;;;;71.75;36.78;;;;;;;2.38;68.82;100632.91;5047758;28;20037;-21
2022/02/16 01:57:07;;;;;;;93.45;46.03;;;;;;;1.80;69.84;100647.31;5047541;28;20026;-21
2022/02/16 01:59:34;;;;;;;82.65;42.42;;;;;;;1.71;69.47;100650.00;5047212;28;20084;-22
2022/02/16 02:01:59;;;;;;;75.18;39.55;;;;;;;1.55;70.68;100632.22;5047440;28;20060;-22
2022/02/16 02:04:25;;;;;;;70.70;40.33;;;;;;;1.36;71.25;100638.41;5047034;28;20041;-22
2022/02/16 02:06:50;;;;;;;77.40;41.38;;;;;;;1.43;71.36;100623.72;5047261;28;20037;-21
2022/02/16 02:09:16;;;;;;;78.03;40.33;;;;;;;1.85;69.55;100617.13;5047558;28;20748;-21
2022/02/16 02:11:41;;;;;;;75.70;41.83;;;;;;;1.20;71.42;100626.69;5047470;28;20095;-21
2022/02/16 02:14:08;;;;;;;78.93;41.08;;;;;;;0.42;74.17;100606.88;5047443;28;20720;-21
2022/02/16 02:16:34;;;;;;;78.57;41.92;;;;;;;0.44;75.04;100616.25;5047013;28;20102;-21
2022/02/16 02:19:00;;;;;;;80.97;41.00;;;;;;;0.89;74.32;100620.03;5029432;28;20496;-21
2022/02/16 02:21:25;;;;;;;76.45;41.30;;;;;;;0.51;74.56;100600.75;5047086;28;20078;-22
2022/02/16 02:23:51;;;;;;;82.28;42.50;;;;;;;0.87;74.06;100590.47;5047299;28;20033;-21
2022/02/16 02:26:16;;;;;;;69.20;38.80;;;;;;;1.16;72.69;100608.75;5029392;28;20400;-21
2022/02/16 02:28:42;;;;;;;70.70;38.65;;;;;;;0.54;73.52;100611.00;5047100;28;20032;-21
2022/02/16 02:31:07;;;;;;;70.90;35.22;;;;;;;-0.14;74.31;100596.09;5029331;28;20087;-21
2022/02/16 02:33:33;;;;;;;85.45;39.17;;;;;;;-0.06;73.36;100593.63;5047025;28;20476;-22
2022/02/16 02:35:59;;;;;;;74.20;38.10;;;;;;;0.38;72.29;100617.63;5029029;28;20544;-22
2022/02/16 02:38:24;;;;;;;75.60;38.88;;;;;;;1.10;69.89;100597.00;5046907;28;20110;-22
2022/02/16 02:40:57;;;;;;;74.57;38.25;;;;;;;0.22;71.60;100593.75;5062708;28;20798;-21
2022/02/16 02:43:25;;;;;;;68.78;36.83;;;;;;;-0.04;73.98;100610.03;5047024;28;20033;-21
2022/02/16 02:45:50;;;;;;;73.00;39.08;;;;;;;0.38;72.79;100622.88;5047333;28;20032;-21
2022/02/16 02:48:18;;;;;;;69.45;36.35;;;;;;;0.38;71.78;100606.31;5064555;28;20781;-21
2022/02/16 02:50:44;;;;;;;63.42;35.10;;;;;;;0.52;70.82;100602.44;5065777;28;20037;-21
2022/02/16 02:53:09;;;;;;;66.28;36.20;;;;;;;0.43;71.63;100611.13;5050669;28;20037;-22
2022/02/16 02:55:35;;;;;;;69.95;36.53;;;;;;;0.66;71.59;100604.63;5050695;28;20029;-21
2022/02/16 02:58:00;;;;;;;65.65;35.80;;;;;;;0.54;70.78;100590.00;5050694;28;20033;-21
2022/02/16 03:00:25;;;;;;;69.03;38.05;;;;;;;0.41;71.06;100598.16;5050376;28;20052;-22
2022/02/16 03:02:51;;;;;;;69.03;36.30;;;;;;;0.76;72.12;100608.06;5050356;28;20029;-22
2022/02/16 03:05:16;;;;;;;74.75;38.92;;;;;;;0.92;71.63;100614.50;5050080;28;20025;-21
2022/02/16 03:07:42;;;;;;;73.57;38.35;;;;;;;1.02;70.73;100599.53;5050655;28;20017;-21
2022/02/16 03:10:08;;;;;;;73.35;39.47;;;;;;;0.94;70.32;100612.53;5050353;28;20418;-21
2022/02/16 03:12:35;;;;;;;71.82;39.00;;;;;;;0.75;71.42;100618.69;5050404;28;20048;-21
2022/02/16 03:15:00;;;;;;;67.93;37.25;;;;;;;0.74;71.43;100610.00;5065562;28;20507;-21
2022/02/16 03:17:26;;;;;;;61.53;34.92;;;;;;;1.17;70.06;100611.25;5050031;28;20059;-21
2022/02/16 03:19:51;;;;;;;57.13;31.67;;;;;;;0.78;70.63;100587.72;5049838;28;20036;-22
2022/02/16 03:22:19;;;;;;;71.85;37.55;;;;;;;0.23;73.19;100613.78;5050167;28;20043;-22
2022/02/16 03:24:45;;;;;;;64.72;37.38;;;;;;;-0.05;74.04;100600.50;5049984;28;20487;-22
2022/02/16 03:27:10;;;;;;;66.53;37.17;;;;;;;-0.16;75.53;100626.00;5050341;28;20094;-22
2022/02/16 03:29:36;;;;;;;68.22;35.88;;;;;;;-0.38;75.96;100616.59;5049991;28;20029;-21
2022/02/16 03:32:01;;;;;;;61.97;35.88;;;;;;;-0.42;75.74;100585.41;5049854;28;20507;-21
2022/02/16 03:34:27;;;;;;;60.83;35.58;;;;;;;0.17;74.20;100615.16;5049657;28;20031;-21
2022/02/16 03:36:52;;;;;;;68.30;36.50;;;;;;;-0.09;74.51;100587.81;5049869;28;20762;-21
2022/02/16 03:39:18;;;;;;;74.82;38.63;;;;;;;0.19;75.28;100607.97;5065271;28;20091;-21
2022/02/16 03:41:43;;;;;;;74.72;38.75;;;;;;;0.07;75.39;100603.00;5049944;28;20040;-21
2022/02/16 03:44:09;;;;;;;71.25;38.80;;;;;;;0.13;75.03;100610.31;5049710;28;20424;-21
2022/02/16 03:46:34;;;;;;;69.28;38.72;;;;;;;0.46;73.74;100613.50;5049394;28;20037;-21
2022/02/16 03:49:00;;;;;;;81.07;39.28;;;;;;;1.19;71.20;100617.19;5049436;28;20033;-22
2022/02/16 03:51:25;;;;;;;74.60;39.80;;;;;;;1.38;70.27;100631.22;5065091;28;20033;-21
2022/02/16 03:53:51;;;;;;;75.13;42.10;;;;;;;1.24;69.64;100603.59;5049624;28;20044;-21
2022/02/16 03:56:16;;;;;;;81.57;43.28;;;;;;;1.48;68.96;100618.03;5049568;28;20037;-21
2022/02/16 03:58:42;;;;;;;77.50;40.50;;;;;;;1.32;69.15;100600.25;5047995;28;20033;-21
2022/02/16 04:01:07;;;;;;;75.88;40.55;;;;;;;1.39;69.53;100619.75;5049050;28;20056;-21
2022/02/16 04:03:33;;;;;;;81.68;42.10;;;;;;;1.42;69.75;100616.81;5049161;28;20103;-21
2022/02/16 04:05:58;;;;;;;70.18;37.22;;;;;;;1.20;69.38;100603.06;5049385;28;20488;-21
2022/02/16 04:08:24;;;;;;;68.35;35.85;;;;;;;1.23;69.48;100619.50;5064636;28;20033;-22
2022/02/16 04:10:49;;;;;;;69.65;36.50;;;;;;;1.04;70.69;100618.59;5049218;28;20032;-21
2022/02/16 04:13:15;;;;;;;66.53;35.42;;;;;;;1.32;70.18;100618.66;5064528;28;20416;-21
2022/02/16 04:15:40;;;;;;;64.10;35.42;;;;;;;1.35;68.64;100621.81;5049121;28;20056;-21
2022/02/16 04:18:06;;;;;;;68.63;35.72;;;;;;;1.59;68.96;100623.06;5048815;28;20043;-21
2022/02/16 04:20:31;;;;;;;78.55;43.08;;;;;;;1.58;69.31;100611.75;5048957;28;20090;-21
2022/02/16 04:22:56;;;;;;;80.32;44.45;;;;;;;0.60;72.02;100608.63;5048619;28;20032;-22
2022/02/16 04:25:22;;;;;;;97.75;53.08;;;;;;;0.45;73.36;100575.06;5048847;28;20032;-22
2022/02/16 04:27:47;;;;;;;74.63;40.03;;;;;;;1.28;70.78;100604.13;5048900;28;20028;-22
2022/02/16 04:30:13;;;;;;;72.30;39.97;;;;;;;1.27;69.25;100587.56;5048700;28;20036;-22
2022/02/16 04:32:39;;;;;;;98.88;47.67;;;;;;;0.70;72.63;100607.78;5048354;28;20040;-21
2022/02/16 04:35:07;;;;;;;92.68;47.17;;;;;;;0.49;72.90;100592.19;5048785;28;20385;-21
2022/02/16 04:37:33;;;;;;;92.32;50.47;;;;;;;1.00;71.54;100588.34;5048792;28;20111;-21
2022/02/16 04:39:58;;;;;;;89.00;48.03;;;;;;;1.28;70.72;100599.72;5048903;28;20087;-21
2022/02/16 04:42:24;;;;;;;82.75;45.08;;;;;;;0.34;71.97;100600.50;5048743;28;20029;-21
2022/02/16 04:44:50;;;;;;;66.45;38.65;;;;;;;-0.18;74.43;100605.19;5048483;28;20029;-22
2022/02/16 04:47:15;;;;;;;75.68;36.78;;;;;;;-0.42;74.97;100598.50;5048198;28;20040;-21
2022/02/16 04:49:41;;;;;;;73.35;38.17;;;;;;;-0.35;74.29;100596.16;5048568;28;20037;-21
2022/02/16 04:52:07;;;;;;;62.78;36.03;;;;;;;-0.58;74.88;100606.06;5048698;28;20459;-21
2022/02/16 04:54:33;;;;;;;67.72;37.85;;;;;;;-0.39;73.95;100609.69;5047960;28;20411;-21
2022/02/16 04:56:58;;;;;;;68.55;36.03;;;;;;;-0.54;74.00;100602.19;5030368;28;20037;-21
2022/02/16 04:59:24;;;;;;;70.35;37.25;;;;;;;-0.59;74.82;100612.28;5048361;28;20477;-21
2022/02/16 05:01:49;;;;;;;63.10;33.92;;;;;;;-0.54;73.75;100610.06;5048499;28;20675;-21
2022/02/16 05:04:15;;;;;;;67.22;33.17;;;;;;;-0.62;73.26;100595.00;5048142;28;20465;-22
2022/02/16 05:06:42;;;;;;;70.78;38.53;;;;;;;-0.82;75.60;100616.84;5048164;28;20029;-21
2022/02/16 05:09:08;;;;;;;133.20;78.20;;;;;;;-0.69;76.18;100614.03;5048165;28;20147;-22
2022/02/16 05:11:34;;;;;;;131.32;65.22;;;;;;;-0.89;75.69;100606.06;5047762;28;20024;-20
2022/02/16 05:14:00;;;;;;;139.80;70.97;;;;;;;-0.93;76.17;100609.91;5048076;28;20044;-21
2022/02/16 05:16:25;;;;;;;90.20;44.90;;;;;;;-0.57;75.49;100618.19;5062920;28;20420;-21
2022/02/16 05:18:51;;;;;;;92.00;46.00;;;;;;;-0.22;74.96;100614.28;5063522;28;20044;-21
2022/02/16 05:21:16;;;;;;;95.80;47.35;;;;;;;0.01;73.02;100625.34;5029668;28;20036;-21
2022/02/16 05:23:42;;;;;;;94.22;45.85;;;;;;;0.32;71.68;100596.38;5047887;28;20036;-22
2022/02/16 05:26:07;;;;;;;95.47;46.38;;;;;;;0.82;70.20;100608.44;5047803;28;20028;-21
2022/02/16 05:28:33;;;;;;;72.50;40.13;;;;;;;0.69;69.90;100627.13;5047399;28;20167;-22
2022/02/16 05:30:58;;;;;;;84.28;42.70;;;;;;;0.53;70.40;100604.06;5047639;28;20039;-21
2022/02/16 05:33:24;;;;;;;81.80;43.80;;;;;;;0.42;71.00;100627.84;5029715;28;20033;-22
2022/02/16 05:35:49;;;;;;;102.75;55.33;;;;;;;-0.48;74.07;100593.00;5047763;28;20032;-21
2022/02/16 05:38:15;;;;;;;99.97;52.58;;;;;;;-0.55;75.75;100613.66;5029658;28;20056;-21
2022/02/16 05:40:42;;;;;;;76.07;41.60;;;;;;;-0.72;76.36;100617.72;5047435;28;20060;-21
2022/02/16 05:43:13;;;;;;;78.47;41.07;;;;;;;-0.58;76.75;100613.09;5047648;28;20033;-21
2022/02/16 05:45:42;;;;;;;118.70;66.53;;;;;;;-0.51;75.82;100599.34;5047596;28;20061;-21
2022/02/16 05:48:07;;;;;;;87.68;42.88;;;;;;;-0.55;76.54;100612.81;5047658;28;20021;-21
2022/02/16 05:50:33;;;;;;;84.32;44.03;;;;;;;-0.59;77.00;100609.66;5047341;28;20048;-21
2022/02/16 05:52:58;;;;;;;81.25;43.38;;;;;;;-0.65;77.09;100603.16;5047643;28;20408;-21
2022/02/16 05:55:24;;;;;;;83.95;43.42;;;;;;;-0.32;76.54;100616.06;5047429;28;20083;-20
2022/02/16 05:57:49;;;;;;;82.22;46.13;;;;;;;0.05;74.76;100616.25;5029158;28;20029;-22
2022/02/16 06:00:15;;;;;;;93.32;49.58;;;;;;;-0.06;76.27;100629.47;5046960;28;20056;-21
2022/02/16 06:02:40;;;;;;;79.10;41.08;;;;;;;-0.16;77.14;100626.00;5047135;28;20401;-21
2022/02/16 06:05:06;;;;;;;127.55;73.93;;;;;;;-0.50;79.02;100611.47;5047220;28;20033;-21
2022/02/16 06:07:32;;;;;;;113.43;63.80;;;;;;;-0.65;79.55;100604.94;5029464;28;20127;-21
2022/02/16 06:09:57;;;;;;;87.40;47.40;;;;;;;-0.21;77.85;100642.16;5029379;28;20503;-21
2022/02/16 06:12:23;;;;;;;80.70;42.97;;;;;;;-0.64;79.38;100603.97;5047171;28;20037;-21
2022/02/16 06:14:48;;;;;;;79.50;40.58;;;;;;;-0.28;78.71;100625.31;5046915;28;20095;-21
2022/02/16 06:17:14;;;;;;;78.15;40.33;;;;;;;-0.06;77.75;100634.72;5047249;28;20025;-21
2022/02/16 06:19:39;;;;;;;82.00;44.22;;;;;;;-0.04;78.02;100633.63;5047379;28;20041;-21
2022/02/16 06:22:05;;;;;;;79.32;42.83;;;;;;;-0.22;78.80;100635.25;5048139;28;20401;-22
2022/02/16 06:24:31;;;;;;;88.93;48.80;;;;;;;-0.16;79.41;100629.47;5050949;28;20056;-21
2022/02/16 06:26:56;;;;;;;86.35;47.47;;;;;;;0.11;78.59;100641.09;5066329;28;20024;-22
2022/02/16 06:29:22;;;;;;;72.25;40.38;;;;;;;-0.03;79.02;100661.50;5032982;28;20461;-21
2022/02/16 06:31:47;;;;;;;75.47;41.78;;;;;;;0.20;77.74;100661.25;5033537;28;20033;-21
2022/02/16 06:34:13;;;;;;;78.20;38.42;;;;;;;0.31;77.70;100662.94;5050736;28;20033;-22
2022/02/16 06:36:38;;;;;;;75.22;42.30;;;;;;;0.34;77.33;100663.47;5066129;28;20082;-21
2022/02/16 06:39:04;;;;;;;87.07;46.20;;;;;;;0.46;76.88;100661.53;5050673;28;20029;-22
2022/02/16 06:41:29;;;;;;;105.85;61.53;;;;;;;0.74;76.99;100680.06;5050778;28;20063;-21
2022/02/16 06:43:55;;;;;;;86.55;49.88;;;;;;;1.05;76.08;100657.03;5050449;28;20041;-20
2022/02/16 06:46:20;;;;;;;84.07;44.63;;;;;;;0.78;77.39;100653.38;5050648;28;20167;-21
2022/02/16 06:48:46;;;;;;;78.63;44.45;;;;;;;0.97;77.70;100664.81;5050422;28;20029;-21
2022/02/16 06:51:11;;;;;;;72.07;38.42;;;;;;;0.85;78.24;100651.00;5050682;28;20033;-21
2022/02/16 06:53:38;;;;;;;65.13;35.72;;;;;;;0.97;77.26;100664.81;5050595;28;20033;-21
2022/02/16 06:56:04;;;;;;;60.70;33.95;;;;;;;0.82;78.50;100656.53;5050584;28;20025;-22
2022/02/16 06:58:29;;;;;;;60.75;34.42;;;;;;;0.91;79.27;100653.06;5050134;28;20041;-21
2022/02/16 07:00:55;;;;;;;79.65;44.38;;;;;;;1.06;78.07;100653.44;5050327;28;20064;-22
2022/02/16 07:03:20;;;;;;;80.57;40.30;;;;;;;1.34;76.80;100642.97;5050505;28;20417;-21
2022/02/16 07:05:45;;;;;;;77.30;40.55;;;;;;;1.20;78.82;100631.13;5050221;28;20420;-22
2022/02/16 07:08:11;;;;;;;77.20;39.90;;;;;;;0.90;81.01;100650.56;5050362;28;20087;-21
2022/02/16 07:10:36;;;;;;;88.10;44.55;;;;;;;1.24;81.49;100623.78;5050185;28;20032;-22
2022/02/16 07:13:02;;;;;;;84.75;42.83;;;;;;;1.54;79.91;100635.84;5049831;28;20064;-21
2022/02/16 07:15:27;;;;;;;84.50;41.15;;;;;;;1.67;80.12;100628.41;5032417;28;20037;-21
2022/02/16 07:17:54;;;;;;;87.63;45.53;;;;;;;1.59;79.48;100623.91;5049918;28;20029;-21
2022/02/16 07:20:19;;;;;;;105.45;50.67;;;;;;;1.89;78.65;100616.66;5050112;28;20126;-21
2022/02/16 07:22:46;;;;;;;69.55;39.22;;;;;;;2.04;79.04;100621.41;5031950;28;20029;-22
2022/02/16 07:25:12;;;;;;;73.70;40.60;;;;;;;2.27;77.47;100629.69;5050069;28;20075;-21
2022/02/16 07:27:37;;;;;;;74.50;36.63;;;;;;;2.22;79.28;100622.25;5049646;28;20053;-21
2022/02/16 07:30:04;;;;;;;65.18;38.35;;;;;;;2.13;78.45;100631.06;5050116;28;20045;-21
2022/02/16 07:32:30;;;;;;;68.90;38.70;;;;;;;2.24;79.47;100633.44;5031499;28;20532;-21
2022/02/16 07:34:55;;;;;;;70.35;38.15;;;;;;;2.52;78.97;100638.63;5049647;28;20044;-21
2022/02/16 07:37:21;;;;;;;73.25;42.03;;;;;;;2.38;78.60;100609.22;5049745;28;20029;-22
2022/02/16 07:39:46;;;;;;;64.70;37.65;;;;;;;2.59;79.30;100629.13;5049975;28;20047;-21
2022/02/16 07:42:12;;;;;;;63.28;38.58;;;;;;;2.69;80.04;100616.69;5049292;28;20750;-21
2022/02/16 07:44:38;;;;;;;69.00;39.20;;;;;;;2.94;79.36;100625.59;5049705;28;20041;-21
2022/02/16 07:47:08;;;;;;;77.80;42.97;;;;;;;3.21;78.01;100614.06;5049694;28;20797;-21
2022/02/16 07:49:34;;;;;;;69.10;40.72;;;;;;;3.07;76.46;100617.28;5049632;28;20025;-21
2022/02/16 07:51:59;;;;;;;72.15;41.60;;;;;;;3.27;77.79;100609.13;5049514;28;20029;-21
2022/02/16 07:54:25;;;;;;;58.70;31.85;;;;;;;3.36;77.42;100618.72;5049591;28;20033;-21
2022/02/16 07:56:50;;;;;;;52.10;32.53;;;;;;;3.21;77.91;100621.16;5049108;28;20029;-21
2022/02/16 07:59:16;;;;;;;57.08;31.67;;;;;;;3.69;76.24;100622.31;5049269;28;20041;-21
2022/02/16 08:01:41;;;;;;;64.05;34.15;;;;;;;3.89;74.69;100625.50;5049332;28;20033;-21
2022/02/16 08:04:16;;;;;;;69.60;39.72;;;;;;;3.88;76.06;100613.28;5049067;28;20033;-21
2022/02/16 08:06:46;;;;;;;69.50;39.42;;;;;;;3.99;74.04;100617.44;5048899;28;20035;-21
2022/02/16 08:09:12;;;;;;;59.50;34.08;;;;;;;3.89;74.18;100609.66;5049086;28;20053;-22
2022/02/16 08:11:38;;;;;;;85.57;45.42;;;;;;;3.70;75.61;100615.22;5049443;28;20033;-21
2022/02/16 08:14:04;;;;;;;111.95;56.85;;;;;;;3.49;76.70;100603.28;5064339;28;20192;-21
2022/02/16 08:16:30;;;;;;;109.95;62.33;;;;;;;3.55;75.45;100609.72;5048900;28;20419;-21
2022/02/16 08:18:55;;;;;;;100.78;56.75;;;;;;;3.37;75.57;100586.09;5048921;28;20546;-21
2022/02/16 08:21:21;;;;;;;71.68;41.60;;;;;;;3.97;76.83;100580.66;5064039;28;20041;-22
2022/02/16 08:23:46;;;;;;;88.18;50.20;;;;;;;4.04;74.78;100580.81;5048558;28;20468;-21
2022/02/16 08:26:12;;;;;;;68.65;41.17;;;;;;;4.33;75.42;100601.47;5048593;28;20036;-21
2022/02/16 08:28:37;;;;;;;76.53;48.08;;;;;;;4.70;72.62;100602.78;5048522;28;20564;-21
2022/02/16 08:31:03;;;;;;;63.17;36.88;;;;;;;4.91;71.99;100589.03;5048768;28;20040;-21
2022/02/16 08:33:29;;;;;;;77.78;47.70;;;;;;;4.87;72.81;100592.19;5048618;28;20419;-22
2022/02/16 08:35:54;;;;;;;66.72;38.45;;;;;;;4.83;73.89;100612.84;5048737;28;20029;-21
2022/02/16 08:38:20;;;;;;;61.00;34.28;;;;;;;4.84;73.12;100614.47;5048378;28;20032;-21
2022/02/16 08:40:45;;;;;;;56.67;34.17;;;;;;;5.23;72.63;100598.69;5048401;28;20033;-22
2022/02/16 08:43:10;;;;;;;64.03;35.70;;;;;;;4.89;72.57;100579.63;5048515;28;20485;-21
2022/02/16 08:45:36;;;;;;;69.03;40.15;;;;;;;4.94;74.58;100614.28;5047983;28;20032;-21
2022/02/16 08:48:01;;;;;;;85.85;52.72;;;;;;;5.19;73.64;100613.25;5048087;28;20102;-22
2022/02/16 08:50:27;;;;;;;72.43;42.05;;;;;;;5.40;72.64;100606.56;5047936;28;20040;-20
2022/02/16 08:52:52;;;;;;;65.85;36.90;;;;;;;5.13;74.82;100598.06;5048226;28;20473;-21
2022/02/16 08:55:18;;;;;;;58.97;33.47;;;;;;;5.12;73.90;100575.25;5030100;28;20063;-21
2022/02/16 08:57:43;;;;;;;61.15;33.00;;;;;;;5.55;74.07;100602.19;5048266;28;20040;-21
2022/02/16 09:00:09;;;;;;;62.53;34.58;;;;;;;5.73;73.94;100607.22;5047897;28;20487;-22
2022/02/16 09:02:36;;;;;;;62.08;32.05;;;;;;;6.30;73.05;100584.88;5047487;28;20021;-22
2022/02/16 09:05:02;;;;;;;73.45;39.17;;;;;;;6.15;71.90;100581.31;5062745;28;20158;-22
2022/02/16 09:07:28;;;;;;;99.50;52.10;;;;;;;6.30;72.36;100579.56;5047699;28;20120;-22
2022/02/16 09:09:53;;;;;;;67.25;33.97;;;;;;;6.53;72.79;100584.00;5047633;28;20033;-21
2022/02/16 09:12:19;;;;;;;82.82;43.40;;;;;;;6.38;73.43;100570.75;5047726;28;20037;-21
2022/02/16 09:14:44;;;;;;;84.97;40.92;;;;;;;6.93;72.00;100584.63;5047590;28;20482;-23
2022/02/16 09:17:10;;;;;;;57.78;30.38;;;;;;;7.08;71.51;100585.44;5047682;28;20036;-21
2022/02/16 09:19:36;;;;;;;84.35;42.35;;;;;;;6.99;70.78;100583.91;5047848;28;20554;-21
2022/02/16 09:22:02;;;;;;;211.57;97.70;;;;;;;7.22;70.90;100574.00;5047594;28;20037;-21
2022/02/16 09:24:28;;;;;;;65.53;34.58;;;;;;;7.20;71.72;100573.34;5047502;28;20063;-20
2022/02/16 09:26:53;;;;;;;149.38;76.25;;;;;;;6.94;72.19;100575.66;5047979;28;20032;-21
2022/02/16 09:29:19;;;;;;;89.57;47.72;;;;;;;6.95;71.78;100578.13;5047634;28;20025;-21
2022/02/16 09:31:45;;;;;;;55.80;27.73;;;;;;;7.10;72.00;100569.34;5047798;28;20503;-22
2022/02/16 09:34:10;;;;;;;69.00;36.60;;;;;;;6.94;72.41;100565.03;5047655;28;20061;-21
2022/02/16 09:36:36;;;;;;;70.30;37.67;;;;;;;7.00;72.90;100559.81;5047550;28;20033;-21
2022/02/16 09:39:02;;;;;;;63.60;33.85;;;;;;;6.53;72.88;100552.22;5047231;28;20025;-21
2022/02/16 09:41:28;;;;;;;69.60;34.85;;;;;;;6.56;76.02;100546.53;5047895;28;20025;-21
2022/02/16 09:43:54;;;;;;;60.28;31.58;;;;;;;6.92;73.86;100545.84;5047545;28;20033;-21
2022/02/16 09:46:20;;;;;;;65.10;32.92;;;;;;;6.77;72.93;100537.91;5046199;28;20036;-21
2022/02/16 09:48:45;;;;;;;73.95;37.83;;;;;;;6.90;72.98;100521.34;5047389;28;20055;-21
2022/02/16 09:51:11;;;;;;;81.55;42.40;;;;;;;6.61;73.51;100523.78;5047378;28;20378;-21
2022/02/16 09:53:36;;;;;;;60.92;30.83;;;;;;;6.75;73.26;100524.81;5029375;28;20090;-21
2022/02/16 09:56:02;;;;;;;61.38;32.67;;;;;;;6.60;73.74;100529.31;5063249;28;20127;-21
2022/02/16 09:58:28;;;;;;;55.78;29.55;;;;;;;6.64;74.78;100522.63;5050365;28;20043;-21
2022/02/16 10:01:00;;;;;;;56.63;30.08;;;;;;;6.52;74.24;100532.00;5033174;28;20057;-21
2022/02/16 10:03:26;;;;;;;66.13;32.08;;;;;;;6.97;73.40;100522.28;5066933;28;20119;-21
2022/02/16 10:05:51;;;;;;;64.65;33.15;;;;;;;7.18;72.72;100506.41;5066906;28;20512;-21
2022/02/16 10:08:44;;;;;;;52.70;28.70;;;;;;;7.63;71.07;100501.78;5051195;28;20028;-21
2022/02/16 10:11:11;;;;;;;64.07;30.55;;;;;;;7.06;72.26;100494.63;5033255;28;20029;-21
2022/02/16 10:13:36;;;;;;;63.92;31.95;;;;;;;7.21;73.72;100473.38;5051312;28;20038;-21
2022/02/16 10:16:02;;;;;;;76.30;35.53;;;;;;;7.98;72.41;100487.81;5051072;28;20044;-21
2022/02/16 10:18:27;;;;;;;115.68;48.05;;;;;;;8.01;70.57;100461.72;5050704;28;20021;-21
2022/02/16 10:21:09;;;;;;;51.45;26.70;;;;;;;8.35;69.73;100473.38;5051423;28;20033;-21
2022/02/16 10:23:42;;;;;;;43.17;23.05;;;;;;;8.48;68.67;100474.53;5051359;28;20029;-21
2022/02/16 10:26:08;;;;;;;61.67;33.13;;;;;;;9.07;66.72;100475.84;5051167;28;20033;-21
2022/02/16 10:28:39;;;;;;;43.22;23.23;;;;;;;9.13;67.33;100473.22;5050762;28;20797;-21
2022/02/16 10:31:09;;;;;;;52.42;24.92;;;;;;;9.20;65.97;100452.78;5032783;28;20029;-21
2022/02/16 10:33:53;;;;;;;56.97;29.45;;;;;;;9.00;67.12;100459.88;5065768;28;20040;-21
2022/02/16 10:36:20;;;;;;;50.38;25.75;;;;;;;9.35;65.57;100446.47;5050934;28;20057;-21
2022/02/16 10:39:03;;;;;;;51.40;27.50;;;;;;;9.46;66.38;100448.56;5050866;28;20025;-21
2022/02/16 10:41:47;;;;;;;50.33;26.05;;;;;;;9.63;65.42;100449.78;5050688;28;20040;-21
2022/02/16 10:44:24;;;;;;;51.45;27.48;;;;;;;9.31;65.20;100434.59;5051065;28;20377;-22
2022/02/16 10:47:05;;;;;;;51.53;25.58;;;;;;;9.15;65.89;100436.56;5050835;28;20034;-22
2022/02/16 10:49:32;;;;;;;48.35;27.27;;;;;;;9.20;65.85;100418.19;5050634;28;20028;-21
2022/02/16 10:52:06;;;;;;;46.85;24.17;;;;;;;9.82;66.10;100434.03;5050798;28;20032;-22
2022/02/16 10:54:32;;;;;;;46.88;26.38;;;;;;;9.57;65.08;100416.00;5050706;28;20029;-21
2022/02/16 10:56:57;;;;;;;57.03;33.85;;;;;;;9.83;64.45;100412.53;5015845;28;20424;-21
2022/02/16 10:59:23;;;;;;;50.45;31.08;;;;;;;10.25;62.54;100412.25;5050042;28;20032;-21
2022/02/16 11:01:48;;;;;;;57.05;31.33;;;;;;;9.83;63.13;100396.53;5050289;28;20029;-21
2022/02/16 11:04:15;;;;;;;57.20;35.88;;;;;;;9.91;63.48;100392.84;5032102;28;20037;-21
2022/02/16 11:06:47;;;;;;;58.17;37.00;;;;;;;9.87;63.41;100380.97;5032207;28;20044;-21
2022/02/16 11:09:24;;;;;;;45.20;28.60;;;;;;;10.01;62.82;100376.41;5049932;28;20067;-21
2022/02/16 11:11:51;;;;;;;49.88;33.10;;;;;;;10.77;60.22;100393.69;5065391;28;20033;-21